sensor_id;sensor_type;location;lat;lon;timestamp;pressure;altitude;pressure_sealevel;temperature;humidity
49461;BME280;35355;49.198;-0.368;2024-02-15T00:00:01;100994.78;;;14.03;76.42
49461;BME280;35355;49.198;-0.368;2024-02-15T00:02:27;100992.06;;;14.03;76.42
49461;BME280;35355;49.198;-0.368;2024-02-15T00:04:52;100987.13;;;14.06;76.48
49461;BME280;35355;49.198;-0.368;2024-02-15T00:07:17;100991.50;;;14.07;76.47
49461;BME280;35355;49.198;-0.368;2024-02-15T00:09:45;100986.84;;;14.07;76.10
49461;BME280;35355;49.198;-0.368;2024-02-15T00:12:10;100989.03;;;14.10;76.49
49461;BME280;35355;49.198;-0.368;2024-02-15T00:14:35;100981.59;;;14.11;76.17
49461;BME280;35355;49.198;-0.368;2024-02-15T00:17:03;100973.09;;;14.12;76.36
49461;BME280;35355;49.198;-0.368;2024-02-15T00:19:29;100980.22;;;14.13;76.37
49461;BME280;35355;49.198;-0.368;2024-02-15T00:21:56;100977.47;;;14.13;76.16
49461;BME280;35355;49.198;-0.368;2024-02-15T00:24:21;100975.84;;;14.12;76.19
49461;BME280;35355;49.198;-0.368;2024-02-15T00:26:47;100975.03;;;14.12;76.29
49461;BME280;35355;49.198;-0.368;2024-02-15T00:29:13;100976.66;;;14.13;76.06
49461;BME280;35355;49.198;-0.368;2024-02-15T00:31:39;100972.28;;;14.12;76.24
49461;BME280;35355;49.198;-0.368;2024-02-15T00:34:05;100971.16;;;14.13;76.09
49461;BME280;35355;49.198;-0.368;2024-02-15T00:36:31;100964.59;;;14.09;76.21
49461;BME280;35355;49.198;-0.368;2024-02-15T00:38:57;100975.03;;;14.12;75.98
49461;BME280;35355;49.198;-0.368;2024-02-15T00:41:23;100972.00;;;14.13;76.13
49461;BME280;35355;49.198;-0.368;2024-02-15T00:43:48;100964.84;;;14.12;76.09
49461;BME280;35355;49.198;-0.368;2024-02-15T00:46:15;100959.34;;;14.12;76.11
49461;BME280;35355;49.198;-0.368;2024-02-15T00:48:41;100945.63;;;14.12;76.16
49461;BME280;35355;49.198;-0.368;2024-02-15T00:51:06;100954.69;;;14.13;76.06
49461;BME280;35355;49.198;-0.368;2024-02-15T00:53:32;100947.56;;;14.12;75.97
49461;BME280;35355;49.198;-0.368;2024-02-15T00:55:57;100947.56;;;14.12;75.91
49461;BME280;35355;49.198;-0.368;2024-02-15T00:58:22;100946.72;;;14.11;75.75
49461;BME280;35355;49.198;-0.368;2024-02-15T01:00:49;100941.25;;;14.11;75.91
49461;BME280;35355;49.198;-0.368;2024-02-15T01:03:15;100942.88;;;14.12;75.79
49461;BME280;35355;49.198;-0.368;2024-02-15T01:05:40;100939.88;;;14.14;76.06
49461;BME280;35355;49.198;-0.368;2024-02-15T01:08:06;100935.22;;;14.14;75.65
49461;BME280;35355;49.198;-0.368;2024-02-15T01:10:31;100936.03;;;14.15;75.68
49461;BME280;35355;49.198;-0.368;2024-02-15T01:12:58;100937.69;;;14.16;75.47
49461;BME280;35355;49.198;-0.368;2024-02-15T01:15:24;100929.97;;;14.18;75.62
49461;BME280;35355;49.198;-0.368;2024-02-15T01:17:49;100923.38;;;14.19;75.53
49461;BME280;35355;49.198;-0.368;2024-02-15T01:20:15;100928.03;;;14.18;75.17
49461;BME280;35355;49.198;-0.368;2024-02-15T01:22:40;100919.81;;;14.18;75.63
49461;BME280;35355;49.198;-0.368;2024-02-15T01:25:06;100927.75;;;14.20;75.29
49461;BME280;35355;49.198;-0.368;2024-02-15T01:27:32;100915.44;;;14.17;75.29
49461;BME280;35355;49.198;-0.368;2024-02-15T01:29:57;100915.16;;;14.19;75.25
49461;BME280;35355;49.198;-0.368;2024-02-15T01:32:23;100908.81;;;14.18;75.16
49461;BME280;35355;49.198;-0.368;2024-02-15T01:34:48;100909.66;;;14.19;75.15
49461;BME280;35355;49.198;-0.368;2024-02-15T01:37:16;100904.44;;;14.17;75.01
49461;BME280;35355;49.198;-0.368;2024-02-15T01:39:41;100898.97;;;14.17;75.08
49461;BME280;35355;49.198;-0.368;2024-02-15T01:42:07;100904.44;;;14.17;74.99
49461;BME280;35355;49.198;-0.368;2024-02-15T01:44:32;100900.06;;;14.16;75.54
49461;BME280;35355;49.198;-0.368;2024-02-15T01:46:58;100894.56;;;14.16;75.10
49461;BME280;35355;49.198;-0.368;2024-02-15T01:49:24;100894.56;;;14.16;74.93
49461;BME280;35355;49.198;-0.368;2024-02-15T01:51:51;100900.06;;;14.16;75.09
49461;BME280;35355;49.198;-0.368;2024-02-15T01:54:19;100895.66;;;14.15;75.09
49461;BME280;35355;49.198;-0.368;2024-02-15T01:56:44;100891.28;;;14.14;75.02
49461;BME280;35355;49.198;-0.368;2024-02-15T01:59:13;100892.91;;;14.15;74.78
49461;BME280;35355;49.198;-0.368;2024-02-15T02:01:40;100886.63;;;14.15;74.88
49461;BME280;35355;49.198;-0.368;2024-02-15T02:04:06;100892.09;;;14.15;74.90
49461;BME280;35355;49.198;-0.368;2024-02-15T02:06:33;100880.84;;;14.11;74.79
49461;BME280;35355;49.198;-0.368;2024-02-15T02:08:58;100882.25;;;14.09;74.81
49461;BME280;35355;49.198;-0.368;2024-02-15T02:11:24;100886.09;;;14.08;74.78
49461;BME280;35355;49.198;-0.368;2024-02-15T02:13:50;100883.63;;;14.06;74.80
49461;BME280;35355;49.198;-0.368;2024-02-15T02:16:30;100880.38;;;14.04;74.90
49461;BME280;35355;49.198;-0.368;2024-02-15T02:19:01;100879.53;;;14.03;74.80
49461;BME280;35355;49.198;-0.368;2024-02-15T02:21:27;100879.81;;;14.02;74.83
49461;BME280;35355;49.198;-0.368;2024-02-15T02:23:55;100868.31;;;14.00;74.58
49461;BME280;35355;49.198;-0.368;2024-02-15T02:26:22;100866.66;;;13.99;74.59
49461;BME280;35355;49.198;-0.368;2024-02-15T02:28:48;100860.91;;;13.95;74.67
49461;BME280;35355;49.198;-0.368;2024-02-15T02:31:14;100866.69;;;13.94;74.95
49461;BME280;35355;49.198;-0.368;2024-02-15T02:33:48;100859.03;;;13.91;74.75
49461;BME280;35355;49.198;-0.368;2024-02-15T02:36:14;100862.00;;;13.89;74.65
49461;BME280;35355;49.198;-0.368;2024-02-15T02:38:39;100855.72;;;13.89;74.77
49461;BME280;35355;49.198;-0.368;2024-02-15T02:41:05;100848.56;;;13.88;74.66
49461;BME280;35355;49.198;-0.368;2024-02-15T02:43:30;100842.56;;;13.85;74.59
49461;BME280;35355;49.198;-0.368;2024-02-15T02:45:55;100847.78;;;13.87;74.68
49461;BME280;35355;49.198;-0.368;2024-02-15T02:48:21;100854.06;;;13.88;74.80
49461;BME280;35355;49.198;-0.368;2024-02-15T02:50:48;100857.38;;;13.90;74.72
49461;BME280;35355;49.198;-0.368;2024-02-15T02:53:13;100848.03;;;13.91;74.73
49461;BME280;35355;49.198;-0.368;2024-02-15T02:55:41;100844.19;;;13.92;74.60
49461;BME280;35355;49.198;-0.368;2024-02-15T02:58:06;100838.69;;;13.92;74.50
49461;BME280;35355;49.198;-0.368;2024-02-15T03:00:33;100836.50;;;13.94;74.43
49461;BME280;35355;49.198;-0.368;2024-02-15T03:02:58;100834.84;;;13.93;74.29
49461;BME280;35355;49.198;-0.368;2024-02-15T03:05:27;100837.31;;;13.94;74.35
49461;BME280;35355;49.198;-0.368;2024-02-15T03:07:54;100838.13;;;13.95;74.18
49461;BME280;35355;49.198;-0.368;2024-02-15T03:10:19;100831.53;;;13.96;73.92
49461;BME280;35355;49.198;-0.368;2024-02-15T03:12:45;100834.81;;;13.98;73.88
49461;BME280;35355;49.198;-0.368;2024-02-15T03:15:13;100832.06;;;13.98;73.91
49461;BME280;35355;49.198;-0.368;2024-02-15T03:17:43;100830.97;;;13.99;73.89
49461;BME280;35355;49.198;-0.368;2024-02-15T03:20:10;100834.53;;;13.99;73.74
49461;BME280;35355;49.198;-0.368;2024-02-15T03:22:57;100821.94;;;13.98;73.81
49461;BME280;35355;49.198;-0.368;2024-02-15T03:25:26;100817.25;;;13.99;73.87
49461;BME280;35355;49.198;-0.368;2024-02-15T03:27:55;100813.97;;;13.97;73.61
49461;BME280;35355;49.198;-0.368;2024-02-15T03:30:22;100809.81;;;13.99;73.60
49461;BME280;35355;49.198;-0.368;2024-02-15T03:32:49;100804.63;;;13.98;73.48
49461;BME280;35355;49.198;-0.368;2024-02-15T03:35:17;100802.72;;;13.98;73.59
49461;BME280;35355;49.198;-0.368;2024-02-15T03:37:43;100806.28;;;13.99;73.51
49461;BME280;35355;49.198;-0.368;2024-02-15T03:40:08;100812.56;;;13.99;73.38
49461;BME280;35355;49.198;-0.368;2024-02-15T03:42:37;100807.94;;;14.00;73.46
49461;BME280;35355;49.198;-0.368;2024-02-15T03:45:06;100801.59;;;13.99;73.47
49461;BME280;35355;49.198;-0.368;2024-02-15T03:47:32;100796.09;;;13.99;73.37
49461;BME280;35355;49.198;-0.368;2024-02-15T03:49:59;100798.03;;;13.99;73.26
49461;BME280;35355;49.198;-0.368;2024-02-15T03:52:24;100793.66;;;13.98;73.22
49461;BME280;35355;49.198;-0.368;2024-02-15T03:54:50;100790.91;;;13.98;73.31
49461;BME280;35355;49.198;-0.368;2024-02-15T03:57:15;100795.28;;;13.99;73.31
49461;BME280;35355;49.198;-0.368;2024-02-15T03:59:42;100790.91;;;13.98;73.45
49461;BME280;35355;49.198;-0.368;2024-02-15T04:02:07;100793.94;;;13.96;73.12
49461;BME280;35355;49.198;-0.368;2024-02-15T04:04:37;100789.56;;;13.95;73.15
49461;BME280;35355;49.198;-0.368;2024-02-15T04:07:06;100787.09;;;13.94;73.19
49461;BME280;35355;49.198;-0.368;2024-02-15T04:09:32;100796.44;;;13.93;73.30
49461;BME280;35355;49.198;-0.368;2024-02-15T04:12:01;100783.00;;;13.91;73.29
49461;BME280;35355;49.198;-0.368;2024-02-15T04:14:27;100785.19;;;13.89;73.26
49461;BME280;35355;49.198;-0.368;2024-02-15T04:16:53;100775.63;;;13.86;73.37
49461;BME280;35355;49.198;-0.368;2024-02-15T04:19:18;100762.19;;;13.85;73.31
49461;BME280;35355;49.198;-0.368;2024-02-15T04:21:47;100755.34;;;13.82;73.33
49461;BME280;35355;49.198;-0.368;2024-02-15T04:24:12;100761.09;;;13.81;73.43
49461;BME280;35355;49.198;-0.368;2024-02-15T04:26:38;100755.34;;;13.77;73.40
49461;BME280;35355;49.198;-0.368;2024-02-15T04:29:03;100747.69;;;13.74;73.73
49461;BME280;35355;49.198;-0.368;2024-02-15T04:31:29;100749.91;;;13.72;73.47
49461;BME280;35355;49.198;-0.368;2024-02-15T04:33:55;100748.25;;;13.71;73.60
49461;BME280;35355;49.198;-0.368;2024-02-15T04:36:21;100751.28;;;13.69;73.60
49461;BME280;35355;49.198;-0.368;2024-02-15T04:38:51;100749.91;;;13.67;73.60
49461;BME280;35355;49.198;-0.368;2024-02-15T04:41:17;100749.66;;;13.63;73.61
49461;BME280;35355;49.198;-0.368;2024-02-15T04:43:49;100752.69;;;13.62;73.65
49461;BME280;35355;49.198;-0.368;2024-02-15T04:46:14;100748.31;;;13.61;73.85
49461;BME280;35355;49.198;-0.368;2024-02-15T04:48:40;100747.78;;;13.59;73.73
49461;BME280;35355;49.198;-0.368;2024-02-15T04:51:08;100751.63;;;13.58;73.68
49461;BME280;35355;49.198;-0.368;2024-02-15T04:53:33;100753.81;;;13.56;73.71
49461;BME280;35355;49.198;-0.368;2024-02-15T04:55:59;100747.78;;;13.54;73.82
49461;BME280;35355;49.198;-0.368;2024-02-15T04:58:32;100754.41;;;13.53;73.70
49461;BME280;35355;49.198;-0.368;2024-02-15T05:01:02;100748.06;;;13.52;74.13
49461;BME280;35355;49.198;-0.368;2024-02-15T05:03:30;100750.00;;;13.51;73.92
49461;BME280;35355;49.198;-0.368;2024-02-15T05:05:56;100740.69;;;13.53;74.25
49461;BME280;35355;49.198;-0.368;2024-02-15T05:08:22;100738.50;;;13.49;73.96
49461;BME280;35355;49.198;-0.368;2024-02-15T05:10:47;100736.28;;;13.51;74.08
49461;BME280;35355;49.198;-0.368;2024-02-15T05:13:12;100739.31;;;13.50;73.86
49461;BME280;35355;49.198;-0.368;2024-02-15T05:15:39;100736.84;;;13.48;74.04
49461;BME280;35355;49.198;-0.368;2024-02-15T05:18:05;100734.13;;;13.43;73.81
49461;BME280;35355;49.198;-0.368;2024-02-15T05:20:33;100746.19;;;13.47;73.53
49461;BME280;35355;49.198;-0.368;2024-02-15T05:22:59;100737.44;;;13.45;74.38
49461;BME280;35355;49.198;-0.368;2024-02-15T05:25:24;100739.59;;;13.43;74.14
49461;BME280;35355;49.198;-0.368;2024-02-15T05:27:55;100732.50;;;13.42;74.28
49461;BME280;35355;49.198;-0.368;2024-02-15T05:30:20;100732.50;;;13.42;73.96
49461;BME280;35355;49.198;-0.368;2024-02-15T05:32:45;100723.72;;;13.40;74.03
49461;BME280;35355;49.198;-0.368;2024-02-15T05:35:11;100717.44;;;13.40;74.26
49461;BME280;35355;49.198;-0.368;2024-02-15T05:37:38;100715.50;;;13.40;74.07
49461;BME280;35355;49.198;-0.368;2024-02-15T05:40:04;100715.50;;;13.40;73.97
49461;BME280;35355;49.198;-0.368;2024-02-15T05:42:30;100701.53;;;13.37;74.15
49461;BME280;35355;49.198;-0.368;2024-02-15T05:44:55;100706.22;;;13.36;74.06
49461;BME280;35355;49.198;-0.368;2024-02-15T05:47:24;100699.09;;;13.35;74.20
49461;BME280;35355;49.198;-0.368;2024-02-15T05:49:50;100691.66;;;13.36;74.25
49461;BME280;35355;49.198;-0.368;2024-02-15T05:52:15;100692.78;;;13.35;74.10
49461;BME280;35355;49.198;-0.368;2024-02-15T05:54:43;100695.75;;;13.33;74.07
49461;BME280;35355;49.198;-0.368;2024-02-15T05:57:08;100685.34;;;13.30;74.14
49461;BME280;35355;49.198;-0.368;2024-02-15T05:59:34;100690.31;;;13.28;74.25
49461;BME280;35355;49.198;-0.368;2024-02-15T06:01:59;100684.84;;;13.23;74.08
49461;BME280;35355;49.198;-0.368;2024-02-15T06:04:24;100689.25;;;13.19;74.25
49461;BME280;35355;49.198;-0.368;2024-02-15T06:06:51;100678.88;;;13.15;74.41
49461;BME280;35355;49.198;-0.368;2024-02-15T06:09:18;100686.81;;;13.12;74.41
49461;BME280;35355;49.198;-0.368;2024-02-15T06:11:47;100678.34;;;13.08;74.24
49461;BME280;35355;49.198;-0.368;2024-02-15T06:14:12;100673.44;;;13.05;74.49
49461;BME280;35355;49.198;-0.368;2024-02-15T06:16:44;100662.19;;;13.02;74.58
49461;BME280;35355;49.198;-0.368;2024-02-15T06:19:10;100672.91;;;12.98;74.49
49461;BME280;35355;49.198;-0.368;2024-02-15T06:21:35;100666.34;;;12.94;74.55
49461;BME280;35355;49.198;-0.368;2024-02-15T06:24:00;100661.41;;;12.91;74.50
49461;BME280;35355;49.198;-0.368;2024-02-15T06:26:26;100660.84;;;12.89;74.62
49461;BME280;35355;49.198;-0.368;2024-02-15T06:28:51;100655.66;;;12.87;74.64
49461;BME280;35355;49.198;-0.368;2024-02-15T06:31:48;100654.59;;;12.83;74.76
49461;BME280;35355;49.198;-0.368;2024-02-15T06:34:32;100656.53;;;12.77;74.27
49461;BME280;35355;49.198;-0.368;2024-02-15T06:37:35;100644.47;;;12.73;74.51
49461;BME280;35355;49.198;-0.368;2024-02-15T06:40:19;100642.84;;;12.72;74.61
49461;BME280;35355;49.198;-0.368;2024-02-15T06:42:45;100644.50;;;12.68;74.88
49461;BME280;35355;49.198;-0.368;2024-02-15T06:45:11;100637.09;;;12.69;75.37
49461;BME280;35355;49.198;-0.368;2024-02-15T06:47:41;100638.19;;;12.73;75.66
49461;BME280;35355;49.198;-0.368;2024-02-15T06:50:12;100639.25;;;12.77;76.19
49461;BME280;35355;49.198;-0.368;2024-02-15T06:52:41;100635.72;;;12.81;76.47
49461;BME280;35355;49.198;-0.368;2024-02-15T06:55:07;100634.59;;;12.88;76.72
49461;BME280;35355;49.198;-0.368;2024-02-15T06:57:34;100620.84;;;12.93;77.27
49461;BME280;35355;49.198;-0.368;2024-02-15T07:00:05;100616.44;;;12.97;76.87
49461;BME280;35355;49.198;-0.368;2024-02-15T07:02:35;100618.91;;;12.98;76.95
49461;BME280;35355;49.198;-0.368;2024-02-15T07:05:00;100621.94;;;12.97;77.21
49461;BME280;35355;49.198;-0.368;2024-02-15T07:07:26;100626.28;;;13.03;77.38
49461;BME280;35355;49.198;-0.368;2024-02-15T07:09:51;100618.34;;;13.07;77.58
49461;BME280;35355;49.198;-0.368;2024-02-15T07:12:16;100615.59;;;13.07;77.80
49461;BME280;35355;49.198;-0.368;2024-02-15T07:14:44;100608.72;;;13.09;77.75
49461;BME280;35355;49.198;-0.368;2024-02-15T07:17:12;100620.22;;;13.11;77.93
49461;BME280;35355;49.198;-0.368;2024-02-15T07:19:42;100615.00;;;13.15;77.95
49461;BME280;35355;49.198;-0.368;2024-02-15T07:22:08;100620.19;;;13.16;78.23
49461;BME280;35355;49.198;-0.368;2024-02-15T07:24:34;100620.47;;;13.15;77.69
49461;BME280;35355;49.198;-0.368;2024-02-15T07:27:00;100629.53;;;13.15;77.73
49461;BME280;35355;49.198;-0.368;2024-02-15T07:29:26;100623.50;;;13.19;77.83
49461;BME280;35355;49.198;-0.368;2024-02-15T07:31:52;100614.13;;;13.20;78.06
49461;BME280;35355;49.198;-0.368;2024-02-15T07:34:19;100616.59;;;13.21;78.03
49461;BME280;35355;49.198;-0.368;2024-02-15T07:36:44;100605.09;;;13.24;78.03
49461;BME280;35355;49.198;-0.368;2024-02-15T07:39:10;100605.34;;;13.28;78.12
49461;BME280;35355;49.198;-0.368;2024-02-15T07:41:40;100608.59;;;13.30;78.03
49461;BME280;35355;49.198;-0.368;2024-02-15T07:44:05;100610.25;;;13.31;77.97
49461;BME280;35355;49.198;-0.368;2024-02-15T07:46:31;100607.78;;;13.29;77.48
49461;BME280;35355;49.198;-0.368;2024-02-15T07:48:56;100618.75;;;13.29;77.35
49461;BME280;35355;49.198;-0.368;2024-02-15T07:51:22;100607.78;;;13.29;77.70
49461;BME280;35355;49.198;-0.368;2024-02-15T07:53:48;100609.97;;;13.32;77.56
49461;BME280;35355;49.198;-0.368;2024-02-15T07:56:15;100608.03;;;13.33;77.17
49461;BME280;35355;49.198;-0.368;2024-02-15T07:58:45;100604.22;;;13.34;77.14
49461;BME280;35355;49.198;-0.368;2024-02-15T08:01:14;100605.88;;;13.35;77.13
49461;BME280;35355;49.198;-0.368;2024-02-15T08:03:40;100603.94;;;13.41;77.37
49461;BME280;35355;49.198;-0.368;2024-02-15T08:06:13;100605.81;;;13.45;77.31
49461;BME280;35355;49.198;-0.368;2024-02-15T08:08:40;100608.50;;;13.50;77.16
49461;BME280;35355;49.198;-0.368;2024-02-15T08:11:11;100606.56;;;13.56;77.04
49461;BME280;35355;49.198;-0.368;2024-02-15T08:13:50;100591.97;;;13.61;76.79
49461;BME280;35355;49.198;-0.368;2024-02-15T08:16:18;100588.38;;;13.65;76.78
49461;BME280;35355;49.198;-0.368;2024-02-15T08:18:44;100583.97;;;13.69;76.57
49461;BME280;35355;49.198;-0.368;2024-02-15T08:21:11;100595.19;;;13.73;76.22
49461;BME280;35355;49.198;-0.368;2024-02-15T08:23:36;100585.84;;;13.74;75.79
49461;BME280;35355;49.198;-0.368;2024-02-15T08:26:02;100587.50;;;13.75;75.59
49461;BME280;35355;49.198;-0.368;2024-02-15T08:28:27;100588.56;;;13.79;75.50
49461;BME280;35355;49.198;-0.368;2024-02-15T08:30:56;100589.91;;;13.82;75.15
49461;BME280;35355;49.198;-0.368;2024-02-15T08:33:25;100594.53;;;13.86;75.13
49461;BME280;35355;49.198;-0.368;2024-02-15T08:35:53;100588.19;;;13.91;75.04
49461;BME280;35355;49.198;-0.368;2024-02-15T08:38:21;100584.00;;;13.99;74.91
49461;BME280;35355;49.198;-0.368;2024-02-15T08:40:46;100566.38;;;14.05;74.45
49461;BME280;35355;49.198;-0.368;2024-02-15T08:43:12;100568.19;;;14.15;74.23
49461;BME280;35355;49.198;-0.368;2024-02-15T08:45:38;100548.13;;;14.19;73.97
49461;BME280;35355;49.198;-0.368;2024-02-15T08:48:04;100552.13;;;14.27;73.62
49461;BME280;35355;49.198;-0.368;2024-02-15T08:50:30;100546.91;;;14.31;73.12
49461;BME280;35355;49.198;-0.368;2024-02-15T08:52:55;100540.88;;;14.29;72.92
49461;BME280;35355;49.198;-0.368;2024-02-15T08:55:21;100542.50;;;14.30;72.69
49461;BME280;35355;49.198;-0.368;2024-02-15T08:57:52;100547.41;;;14.33;72.67
49461;BME280;35355;49.198;-0.368;2024-02-15T09:00:17;100541.63;;;14.34;72.43
49461;BME280;35355;49.198;-0.368;2024-02-15T09:02:44;100539.44;;;14.36;72.35
49461;BME280;35355;49.198;-0.368;2024-02-15T09:05:09;100534.16;;;14.40;72.30
49461;BME280;35355;49.198;-0.368;2024-02-15T09:07:35;100522.06;;;14.41;72.08
49461;BME280;35355;49.198;-0.368;2024-02-15T09:10:02;100519.03;;;14.43;71.94
49461;BME280;35355;49.198;-0.368;2024-02-15T09:12:28;100512.13;;;14.45;71.83
49461;BME280;35355;49.198;-0.368;2024-02-15T09:14:53;100506.56;;;14.50;71.29
49461;BME280;35355;49.198;-0.368;2024-02-15T09:17:19;100507.03;;;14.57;71.79
49461;BME280;35355;49.198;-0.368;2024-02-15T09:19:47;100490.50;;;14.63;71.74
49461;BME280;35355;49.198;-0.368;2024-02-15T09:22:12;100491.81;;;14.70;71.39
49461;BME280;35355;49.198;-0.368;2024-02-15T09:24:38;100487.31;;;14.74;71.15
49461;BME280;35355;49.198;-0.368;2024-02-15T09:27:03;100489.19;;;14.79;70.92
49461;BME280;35355;49.198;-0.368;2024-02-15T09:29:29;100478.13;;;14.84;70.72
49461;BME280;35355;49.198;-0.368;2024-02-15T09:31:58;100470.34;;;14.91;70.62
49461;BME280;35355;49.198;-0.368;2024-02-15T09:34:24;100469.13;;;14.98;70.46
49461;BME280;35355;49.198;-0.368;2024-02-15T09:36:50;100479.47;;;15.06;70.29
49461;BME280;35355;49.198;-0.368;2024-02-15T09:39:15;100479.69;;;15.09;70.14
49461;BME280;35355;49.198;-0.368;2024-02-15T09:41:43;100485.13;;;15.15;69.97
49461;BME280;35355;49.198;-0.368;2024-02-15T09:44:08;100470.47;;;15.19;69.64
49461;BME280;35355;49.198;-0.368;2024-02-15T09:46:42;100465.97;;;15.23;70.14
49461;BME280;35355;49.198;-0.368;2024-02-15T09:49:11;100467.31;;;15.26;69.37
49461;BME280;35355;49.198;-0.368;2024-02-15T09:51:37;100469.78;;;15.27;68.95
49461;BME280;35355;49.198;-0.368;2024-02-15T09:54:03;100472.53;;;15.27;68.75
49461;BME280;35355;49.198;-0.368;2024-02-15T09:56:30;100478.84;;;15.28;68.72
49461;BME280;35355;49.198;-0.368;2024-02-15T09:58:59;100473.84;;;15.30;68.78
49461;BME280;35355;49.198;-0.368;2024-02-15T10:01:25;100462.56;;;15.32;68.31
49461;BME280;35355;49.198;-0.368;2024-02-15T10:03:52;100461.94;;;15.35;68.26
49461;BME280;35355;49.198;-0.368;2024-02-15T10:06:18;100452.59;;;15.36;68.09
49461;BME280;35355;49.198;-0.368;2024-02-15T10:08:44;100444.03;;;15.37;68.00
49461;BME280;35355;49.198;-0.368;2024-02-15T10:11:10;100444.03;;;15.37;67.94
49461;BME280;35355;49.198;-0.368;2024-02-15T10:13:36;100439.34;;;15.38;67.93
49461;BME280;35355;49.198;-0.368;2024-02-15T10:16:18;100447.28;;;15.39;68.73
49461;BME280;35355;49.198;-0.368;2024-02-15T10:18:47;100442.03;;;15.43;67.98
49461;BME280;35355;49.198;-0.368;2024-02-15T10:21:26;100439.28;;;15.43;68.29
49461;BME280;35355;49.198;-0.368;2024-02-15T10:24:06;100439.78;;;15.45;68.24
49461;BME280;35355;49.198;-0.368;2024-02-15T10:26:33;100432.63;;;15.44;67.58
49461;BME280;35355;49.198;-0.368;2024-02-15T10:29:07;100432.75;;;15.39;67.63
49461;BME280;35355;49.198;-0.368;2024-02-15T10:31:35;100425.69;;;15.33;67.44
49461;BME280;35355;49.198;-0.368;2024-02-15T10:34:06;100423.84;;;15.28;67.80
49461;BME280;35355;49.198;-0.368;2024-02-15T10:36:31;100425.03;;;15.22;67.44
49461;BME280;35355;49.198;-0.368;2024-02-15T10:39:14;100423.63;;;15.24;68.02
49461;BME280;35355;49.198;-0.368;2024-02-15T10:41:49;100421.09;;;15.28;67.85
49461;BME280;35355;49.198;-0.368;2024-02-15T10:44:22;100429.56;;;15.32;67.96
49461;BME280;35355;49.198;-0.368;2024-02-15T10:46:49;100414.09;;;15.36;67.40
49461;BME280;35355;49.198;-0.368;2024-02-15T10:49:21;100419.19;;;15.42;67.30
49461;BME280;35355;49.198;-0.368;2024-02-15T10:51:58;100408.63;;;15.50;67.79
49461;BME280;35355;49.198;-0.368;2024-02-15T10:57:26;100408.66;;;15.64;67.34
49461;BME280;35355;49.198;-0.368;2024-02-15T10:59:58;100415.38;;;15.71;67.58
49461;BME280;35355;49.198;-0.368;2024-02-15T11:02:37;100412.75;;;15.80;67.61
49461;BME280;35355;49.198;-0.368;2024-02-15T11:05:06;100406.84;;;15.87;66.74
49461;BME280;35355;49.198;-0.368;2024-02-15T11:07:36;100402.06;;;15.92;66.25
49461;BME280;35355;49.198;-0.368;2024-02-15T11:10:02;100408.09;;;15.94;66.19
49461;BME280;35355;49.198;-0.368;2024-02-15T11:12:31;100408.59;;;15.96;65.86
49461;BME280;35355;49.198;-0.368;2024-02-15T11:14:56;100400.31;;;15.96;65.93
49461;BME280;35355;49.198;-0.368;2024-02-15T11:20:05;100388.50;;;16.10;65.81
49461;BME280;35355;49.198;-0.368;2024-02-15T11:22:35;100386.13;;;16.17;65.53
49461;BME280;35355;49.198;-0.368;2024-02-15T11:25:07;100389.28;;;16.24;65.29
49461;BME280;35355;49.198;-0.368;2024-02-15T11:27:35;100376.22;;;16.30;64.99
49461;BME280;35355;49.198;-0.368;2024-02-15T11:30:04;100382.72;;;16.34;64.90
49461;BME280;35355;49.198;-0.368;2024-02-15T11:32:49;100374.16;;;16.36;64.67
49461;BME280;35355;49.198;-0.368;2024-02-15T11:35:20;100371.13;;;16.37;64.50
49461;BME280;35355;49.198;-0.368;2024-02-15T11:40:13;100359.09;;;16.33;64.09
49461;BME280;35355;49.198;-0.368;2024-02-15T11:42:39;100356.13;;;16.29;63.97
49461;BME280;35355;49.198;-0.368;2024-02-15T11:45:06;100357.75;;;16.30;64.19
49461;BME280;35355;49.198;-0.368;2024-02-15T11:47:36;100347.84;;;16.29;64.49
49461;BME280;35355;49.198;-0.368;2024-02-15T11:50:02;100341.53;;;16.29;63.85
49461;BME280;35355;49.198;-0.368;2024-02-15T11:52:28;100339.09;;;16.27;63.92
49461;BME280;35355;49.198;-0.368;2024-02-15T11:54:54;100333.59;;;16.27;63.68
49461;BME280;35355;49.198;-0.368;2024-02-15T11:57:19;100326.97;;;16.28;63.73
49461;BME280;35355;49.198;-0.368;2024-02-15T12:00:01;100314.50;;;16.31;63.57
49461;BME280;35355;49.198;-0.368;2024-02-15T12:02:46;100297.03;;;16.36;63.46
49461;BME280;35355;49.198;-0.368;2024-02-15T12:05:30;100293.69;;;16.39;63.31
49461;BME280;35355;49.198;-0.368;2024-02-15T12:08:14;100280.72;;;16.39;66.32
49461;BME280;35355;49.198;-0.368;2024-02-15T12:11:01;100278.13;;;16.43;63.68
49461;BME280;35355;49.198;-0.368;2024-02-15T12:13:51;100269.88;;;16.43;63.90
49461;BME280;35355;49.198;-0.368;2024-02-15T12:16:36;100271.50;;;16.44;63.35
49461;BME280;35355;49.198;-0.368;2024-02-15T12:19:20;100262.13;;;16.45;63.07
49461;BME280;35355;49.198;-0.368;2024-02-15T12:21:47;100264.56;;;16.46;62.88
49461;BME280;35355;49.198;-0.368;2024-02-15T12:24:12;100258.75;;;16.48;62.96
49461;BME280;35355;49.198;-0.368;2024-02-15T12:26:39;100252.13;;;16.49;62.73
49461;BME280;35355;49.198;-0.368;2024-02-15T12:29:06;100245.13;;;16.52;62.68
49461;BME280;35355;49.198;-0.368;2024-02-15T12:31:35;100235.44;;;16.54;62.92
49461;BME280;35355;49.198;-0.368;2024-02-15T12:34:04;100248.09;;;16.55;62.73
49461;BME280;35355;49.198;-0.368;2024-02-15T12:36:33;100241.97;;;16.58;62.62
49461;BME280;35355;49.198;-0.368;2024-02-15T12:39:10;100246.84;;;16.61;63.40
49461;BME280;35355;49.198;-0.368;2024-02-15T12:41:55;100241.50;;;16.65;63.86
49461;BME280;35355;49.198;-0.368;2024-02-15T12:44:20;100227.72;;;16.65;62.58
49461;BME280;35355;49.198;-0.368;2024-02-15T12:46:46;100220.66;;;16.73;62.65
49461;BME280;35355;49.198;-0.368;2024-02-15T12:51:50;100216.00;;;16.82;63.19
49461;BME280;35355;49.198;-0.368;2024-02-15T12:54:22;100217.78;;;16.87;62.36